Historyczne dane pomiarowe

Dodano dane terminowe – wersja testowa.

Dane z okresu 1951-2019

Wersja bazy: 1.34 [2019-03-16, lista zmian], aktualizacja planowana na 2019-04-15

Dane meteo z obszaru Polski uzyskane na podstawie danych udostępnionych przez Instytut Meteorologii i Gospodarki Wodnej – Państwowy Instytut Badawczy.

 

Wybierz Datę:    

       

TemperaturaWilgotnośćWiatrCiśnienieOpadyŚniegCzas trwania zjawisk
 Stacja t tx tn tng RH VA  wxwx mslp ppp RRR   cm mm wxwxwxwxwxwxwx
1999-08-14 15.9 23.4 7.7 2.0 71.5- 4.3 0.7---- 2.7------------
1999-08-13 14.8 19.3 10.7 5.5 74.8- 4.0 1.3---- 0.0------------
1999-08-12 14.5 18.8 10.2 5.7 74.0- 6.3 1.3---- 0.0------------
1999-08-11 17.1 20.8 14.0 10.7 90.3- 6.7 1.0---- 2.4------------
1999-08-10 21.1 25.0 18.4 14.1 77.8- 6.3 2.0---- 0.0------------
1999-08-09 20.9 27.6 15.0 10.3 80.8- 5.7 0.3---- 5.6------------
1999-08-08 22.4 28.9 15.3 10.6 69.8- 3.3 0.3---- 0.0------------
1999-08-07 20.6 28.0 13.1 8.1 84.3- 5.0 0.0---- 0.2------------
1999-08-06 22.5 28.3 17.6 13.3 72.0- 5.3 0.7---- 0.0------------
1999-08-05 19.7 28.0 11.4 5.7 67.5- 4.7 0.7---- 0.0------------
1999-08-04 20.1 28.2 10.8 5.7 68.0- 0.0 0.0---- 0.0------------
1999-08-03 19.8 27.2 11.3 5.6 68.5- 0.7 0.3---- 0.0------------
1999-08-02 20.6 26.6 13.6 6.7 55.3- 0.7 1.3---- 0.0------------
1999-08-01 20.7 27.0 14.0 6.8 58.3- 1.0 2.0---- 0.0------------
1999-07-31 20.5 26.8 14.2 6.7 61.5- 1.3 1.7---- 0.0------------
1999-07-30 19.6 26.0 12.6 6.9 64.0- 1.3 1.7---- 0.0------------
1999-07-29 19.0 25.3 13.1 7.5 77.3- 2.0 1.3---- 0.0------------
1999-07-28 19.0 24.5 12.7 10.6 65.5- 2.0 1.0---- 0.0------------
1999-07-27 17.4 22.3 14.4 9.6 72.8- 2.3 0.7---- 0.0------------
1999-07-26 20.0 25.8 15.8 12.3 80.5- 2.3 1.3---- 0.0------------
1999-07-25 20.6 25.8 14.5 12.0 71.5- 3.3 1.0---- 0.0------------
1999-07-24 16.3 19.9 13.6 12.7 79.8- 5.7 1.7---- 0.0------------
1999-07-23 14.6 17.9 10.6 8.3 88.0- 7.0 1.0---- 0.0------------
1999-07-22 16.9 22.0 12.4 8.6 74.8- 3.0 1.3---- 0.0------------
1999-07-21 20.5 25.9 13.3 13.1 81.5- 2.3 0.7---- 0.0------------
1999-07-20 21.5 28.7 13.8 10.4 71.5- 1.3 1.0---- 0.0------------
1999-07-19 23.0 29.7 13.6 9.3 48.5- 0.3 1.0---- 0.0------------
1999-07-18 21.7 28.7 12.4 8.3 60.0- 1.3 1.0---- 0.0------------
1999-07-17 18.7 24.8 11.0 7.4 72.0- 1.3 1.0---- 0.0------------
1999-07-16 16.1 21.5 10.6 7.1 80.3- 1.3 1.3---- 0.0------------
1999-07-15 15.3 19.3 11.9 9.6 80.5- 5.0 1.7---- 0.6------------
1999-07-14 19.9 24.8 17.5 15.9 83.5- 5.3 2.3---- 2.5------------
1999-07-13 22.3 26.4 17.0 14.1 80.0- 1.3 0.0---- 0.9------------
1999-07-12 21.3 27.6 17.6 15.5 86.8- 1.7 0.7---- 8.1------------
1999-07-11 20.4 25.3 16.0 13.6 76.8- 2.3 1.0---- 0.0------------
1999-07-10 21.0 25.9 15.5 13.6 70.5- 2.3 2.3---- 0.0------------
1999-07-09 18.9 23.4 15.0 14.9 78.5- 6.3 2.3---- 0.0------------
1999-07-08 17.4 19.8 15.2 14.6 83.5- 7.0 0.7---- 4.8------------
1999-07-07 17.3 22.0 15.0 15.0 97.8- 7.7 0.7---- 0.0------------
1999-07-06 21.4 27.2 18.2 15.3 91.8- 7.3 2.0---- 8.9------------
1999-07-05 25.2 33.9 17.5 15.9 66.8- 3.7 1.3---- 31.5------------
1999-07-04 23.2 29.2 18.1 13.6 73.3- 0.7 0.3---- 0.0------------
1999-07-03 21.3 28.3 13.7 10.8 74.8- 0.3 0.0---- 0.0------------
1999-07-02 18.8 21.8 14.0 11.4 74.8- 4.7 1.3---- 0.0------------
1999-07-01 19.1 23.0 15.5 14.3 82.3- 3.7 0.7---- 0.0------------
1999-06-30 20.9 27.4 15.5 10.8 67.0- 3.0 0.7---- 0.0------------
1999-06-29 18.1 23.8 10.7 7.1 61.3- 2.7 1.0---- 0.0------------
1999-06-28 18.9 25.0 13.8 10.9 73.5- 3.7 2.0---- 0.0------------
1999-06-27 18.6 25.6 12.6 11.6 82.8- 6.3 1.7---- 16.0------------
1999-06-26 13.9 20.6 5.6 1.7 77.0- 0.0 1.3---- 0.0------------
1999-06-25 12.7 17.4 8.3 3.7 78.0- 6.7 0.7---- 0.5------------
1999-06-24 13.0 18.8 7.6 3.8 78.0- 6.3 0.3---- 0.0------------
1999-06-23 13.4 17.8 8.7 7.1 65.0- 2.7 1.0---- 0.0------------
1999-06-22 12.1 15.8 9.6 8.1 82.5- 8.0 1.3---- 0.0------------
1999-06-21 15.7 20.8 13.1 9.7 89.5- 7.7 0.7---- 3.2------------
1999-06-20 17.7 22.8 12.4 8.6 79.3- 3.3 0.3---- 0.3------------
1999-06-19 16.1 20.2 11.7 11.6 92.5- 5.7 1.0---- 0.0------------
1999-06-18 14.6 20.2 12.1 9.1 92.8- 8.0 2.0---- 20.6------------
1999-06-17 17.6 22.8 11.7 8.3 82.8- 3.3 0.7---- 0.0------------
1999-06-16 16.7 20.4 12.1 7.6 78.8- 6.0 0.0---- 0.0------------
253.2 ms

 

Źródłem pochodzenia danych jest Instytut Meteorologii i Gospodarki Wodnej – Państwowy Instytut Badawczy. Dane Instytutu Meteorologii i Gospodarki Wodnej – Państwowego Instytutu Badawczego zostały przetworzone.

Dane źródłowe można odnaleźć na stronie https://dane.imgw.pl